createdAt,value
2022-08-16T00:00:57.093Z,5.88
2022-08-16T00:03:24.259Z,5.75
2022-08-16T00:05:57.772Z,5.80
2022-08-16T00:08:35.873Z,5.38
2022-08-16T00:11:15.593Z,5.88
2022-08-16T00:13:54.247Z,5.95
2022-08-16T00:17:05.838Z,5.95
2022-08-16T00:19:18.323Z,4.90
2022-08-16T00:21:46.538Z,5.20
2022-08-16T00:24:31.389Z,5.32
2022-08-16T00:27:03.285Z,5.60
2022-08-16T00:29:30.748Z,6.47
2022-08-16T00:31:59.558Z,5.63
2022-08-16T00:34:43.274Z,5.80
2022-08-16T00:37:17.139Z,5.72
2022-08-16T00:39:47.214Z,6.03
2022-08-16T00:42:30.459Z,5.55
2022-08-16T00:45:25.426Z,5.70
2022-08-16T00:47:52.580Z,5.38
2022-08-16T00:50:21.664Z,5.32
2022-08-16T00:53:05.231Z,6.13
2022-08-16T00:55:37.659Z,6.10
2022-08-16T00:58:05.503Z,6.22
2022-08-16T01:00:40.392Z,6.20
2022-08-16T01:03:11.809Z,6.72
2022-08-16T01:05:39.942Z,6.18
2022-08-16T01:08:36.527Z,6.10
2022-08-16T01:10:55.303Z,6.43
2022-08-16T01:13:29.118Z,6.22
2022-08-16T01:16:02.996Z,6.65
2022-08-16T01:18:39.706Z,6.25
2022-08-16T01:21:34.900Z,5.93
2022-08-16T01:24:53.418Z,6.63
2022-08-16T01:27:24.515Z,6.55
2022-08-16T01:29:58.052Z,6.03
2022-08-16T01:32:33.720Z,6.32
2022-08-16T01:35:04.230Z,5.55
2022-08-16T01:37:38.546Z,5.93
2022-08-16T01:40:07.124Z,6.80
2022-08-16T01:42:34.631Z,5.90
2022-08-16T01:45:01.683Z,6.68
2022-08-16T01:47:29.438Z,6.40
2022-08-16T01:50:44.278Z,5.97
2022-08-16T01:52:47.102Z,5.82
2022-08-16T01:55:17.363Z,4.88
2022-08-16T01:57:53.281Z,6.07
2022-08-16T02:00:21.294Z,5.95
2022-08-16T02:02:56.713Z,5.70
2022-08-16T02:05:23.998Z,5.82
2022-08-16T02:07:52.141Z,5.88
2022-08-16T02:10:20.481Z,6.07
2022-08-16T02:12:51.001Z,5.55
2022-08-16T02:15:25.927Z,6.13
2022-08-16T02:17:54.957Z,5.80
2022-08-16T02:20:26.096Z,6.57
2022-08-16T02:22:55.277Z,5.70
2022-08-16T02:25:22.657Z,6.38
2022-08-16T02:27:51.070Z,5.88
2022-08-16T02:30:37.590Z,5.90
2022-08-16T02:33:09.176Z,5.45
2022-08-16T02:35:54.074Z,5.95
2022-08-16T02:38:23.991Z,6.25
2022-08-16T02:40:51.523Z,6.30
2022-08-16T02:43:21.403Z,6.78
2022-08-16T02:45:54.368Z,5.97
2022-08-16T02:48:30.013Z,5.80
2022-08-16T02:51:06.756Z,5.63
2022-08-16T02:53:43.043Z,5.95
2022-08-16T02:56:12.155Z,5.97
2022-08-16T02:58:44.008Z,5.53
2022-08-16T03:01:24.441Z,5.68
2022-08-16T03:04:39.998Z,5.32
2022-08-16T03:06:50.493Z,5.80
2022-08-16T03:09:23.109Z,5.10
2022-08-16T03:11:50.493Z,5.93
2022-08-16T03:14:21.092Z,5.75
2022-08-16T03:16:59.706Z,6.35
2022-08-16T03:19:48.608Z,5.95
2022-08-16T03:22:19.220Z,5.88
2022-08-16T03:24:57.407Z,4.72
2022-08-16T03:27:25.573Z,6.05
2022-08-16T03:29:58.256Z,6.13
2022-08-16T03:32:26.193Z,5.15
2022-08-16T03:34:53.123Z,5.97
2022-08-16T03:37:20.075Z,5.57
2022-08-16T03:39:47.280Z,6.30
2022-08-16T03:42:20.250Z,5.63
2022-08-16T03:44:49.498Z,6.10
2022-08-16T03:47:18.524Z,5.40
2022-08-16T03:49:51.992Z,5.75
2022-08-16T03:52:23.257Z,5.97
2022-08-16T03:54:58.150Z,6.13
2022-08-16T03:57:31.798Z,5.28
2022-08-16T04:00:20.532Z,5.38
2022-08-16T04:03:07.156Z,5.93
2022-08-16T04:05:36.330Z,5.43
2022-08-16T04:08:22.474Z,6.10
2022-08-16T04:10:52.062Z,6.13
2022-08-16T04:13:20.666Z,5.30
2022-08-16T04:16:06.977Z,5.90
2022-08-16T04:18:36.865Z,5.68
2022-08-16T04:21:04.042Z,6.53
2022-08-16T04:23:31.164Z,5.85
2022-08-16T04:25:58.459Z,5.90
2022-08-16T04:28:54.562Z,6.15
2022-08-16T04:31:16.357Z,5.93
2022-08-16T04:33:50.836Z,6.28
2022-08-16T04:36:19.899Z,6.13
2022-08-16T04:38:47.425Z,5.75
2022-08-16T04:41:17.566Z,6.25
2022-08-16T04:43:44.836Z,6.05
2022-08-16T04:47:00.302Z,5.75
2022-08-16T04:49:04.053Z,5.30
2022-08-16T04:51:35.822Z,6.40
2022-08-16T04:54:03.514Z,5.63
2022-08-16T04:56:31.095Z,6.07
2022-08-16T04:58:58.013Z,5.40
2022-08-16T05:01:55.925Z,6.18
2022-08-16T05:04:19.377Z,5.95
2022-08-16T05:06:46.907Z,6.30
2022-08-16T05:09:16.291Z,5.45
2022-08-16T05:11:43.465Z,5.97
2022-08-16T05:14:10.302Z,5.90
2022-08-16T05:16:37.399Z,5.60
2022-08-16T05:19:06.318Z,6.00
2022-08-16T05:21:39.611Z,5.45
2022-08-16T05:24:07.317Z,6.50
2022-08-16T05:26:34.596Z,5.35
2022-08-16T05:29:04.386Z,5.93
2022-08-16T05:31:31.764Z,5.35
2022-08-16T05:33:59.896Z,5.38
2022-08-16T05:36:33.788Z,5.63
2022-08-16T05:39:02.988Z,5.38
2022-08-16T05:41:30.608Z,5.75
2022-08-16T05:44:01.207Z,5.35
2022-08-16T05:49:05.721Z,5.40
2022-08-16T05:51:37.609Z,5.97
2022-08-16T05:54:06.606Z,6.00
2022-08-16T05:56:34.089Z,5.68
2022-08-16T05:59:03.171Z,6.88
2022-08-16T06:01:38.141Z,5.72
2022-08-16T06:04:12.984Z,5.70
2022-08-16T06:06:56.853Z,5.50
2022-08-16T06:09:25.945Z,5.82
2022-08-16T06:12:26.819Z,5.32
2022-08-16T06:15:01.881Z,5.68
2022-08-16T06:17:43.885Z,5.45
2022-08-16T06:20:18.386Z,6.10
2022-08-16T06:23:03.099Z,5.68
2022-08-16T06:25:36.786Z,5.60
2022-08-16T06:28:08.728Z,5.80
2022-08-16T06:30:43.357Z,6.10
2022-08-16T06:33:21.984Z,5.43
2022-08-16T06:35:55.246Z,4.85
2022-08-16T06:38:34.026Z,5.88
2022-08-16T06:41:05.821Z,6.35
2022-08-16T06:43:32.994Z,5.85
2022-08-16T06:46:00.889Z,5.85
2022-08-16T06:48:33.686Z,6.00
2022-08-16T06:51:03.412Z,5.78
2022-08-16T06:53:33.521Z,5.75
2022-08-16T06:56:06.054Z,5.80
2022-08-16T06:58:40.916Z,6.15
2022-08-16T07:01:09.960Z,5.95
2022-08-16T07:03:55.602Z,5.60
2022-08-16T07:06:26.721Z,6.18
2022-08-16T07:08:54.097Z,6.30
2022-08-16T07:11:20.959Z,5.68
2022-08-16T07:14:24.463Z,5.95
2022-08-16T07:19:21.055Z,5.47
2022-08-16T07:21:59.346Z,5.45
2022-08-16T07:24:30.356Z,5.78
2022-08-16T07:27:00.771Z,5.80
2022-08-16T07:29:31.470Z,5.50
2022-08-16T07:32:00.783Z,5.97
2022-08-16T07:34:34.989Z,5.18
2022-08-16T07:37:09.707Z,5.57
2022-08-16T07:39:43.474Z,5.90
2022-08-16T07:42:25.998Z,5.33
2022-08-16T07:44:58.416Z,5.10
2022-08-16T07:47:31.517Z,5.43
2022-08-16T07:49:59.975Z,5.15
2022-08-16T07:52:32.882Z,5.88
2022-08-16T07:55:00.316Z,4.45
2022-08-16T07:57:27.223Z,5.55
2022-08-16T07:59:57.419Z,5.22
2022-08-16T08:02:27.359Z,4.82
2022-08-16T08:04:55.288Z,5.45
2022-08-16T08:07:23.059Z,5.97
2022-08-16T08:09:55.948Z,4.95
2022-08-16T08:12:32.027Z,5.22
2022-08-16T08:15:04.315Z,5.38
2022-08-16T08:17:42.100Z,4.95
2022-08-16T08:20:12.238Z,4.80
2022-08-16T08:22:39.530Z,5.32
2022-08-16T08:25:07.413Z,5.72
2022-08-16T08:27:35.480Z,5.22
2022-08-16T08:30:49.071Z,5.20
2022-08-16T08:32:59.774Z,5.47
2022-08-16T08:35:28.455Z,5.60
2022-08-16T08:37:56.534Z,6.15
2022-08-16T08:40:24.783Z,6.22
2022-08-16T08:43:00.262Z,7.40
2022-08-16T08:45:48.382Z,6.72
2022-08-16T08:48:34.062Z,6.95
2022-08-16T08:51:09.134Z,6.25
2022-08-16T08:53:37.055Z,6.18
2022-08-16T08:56:22.877Z,5.60
2022-08-16T08:58:54.816Z,5.82
2022-08-16T09:01:36.985Z,5.70
2022-08-16T09:04:10.526Z,6.47
2022-08-16T09:06:43.254Z,5.72
2022-08-16T09:09:16.777Z,6.03
2022-08-16T09:11:49.553Z,5.68
2022-08-16T09:14:24.045Z,5.45
2022-08-16T09:17:03.893Z,5.90
2022-08-16T09:19:40.868Z,5.68
2022-08-16T09:22:20.735Z,5.70
2022-08-16T09:24:53.449Z,5.57
2022-08-16T09:27:23.522Z,5.40
2022-08-16T09:30:00.188Z,5.55
2022-08-16T09:32:30.938Z,5.13
2022-08-16T09:34:59.790Z,4.90
2022-08-16T09:37:29.447Z,5.15
2022-08-16T09:40:00.726Z,5.40
2022-08-16T09:42:28.258Z,5.43
2022-08-16T09:45:11.325Z,4.72
2022-08-16T09:47:57.120Z,5.35
2022-08-16T09:50:36.812Z,5.10
2022-08-16T09:53:15.574Z,4.53
2022-08-16T09:55:49.268Z,4.80
2022-08-16T09:58:37.898Z,4.85
2022-08-16T10:01:11.728Z,4.35
2022-08-16T10:04:01.801Z,4.78
2022-08-16T10:06:26.324Z,4.70
2022-08-16T10:09:10.750Z,5.00
2022-08-16T10:12:11.770Z,4.47
2022-08-16T10:14:46.012Z,4.43
2022-08-16T10:17:13.326Z,4.88
2022-08-16T10:19:40.212Z,4.00
2022-08-16T10:22:12.674Z,4.35
2022-08-16T10:24:55.998Z,4.80
2022-08-16T10:27:30.098Z,4.72
2022-08-16T10:30:25.180Z,4.78
2022-08-16T10:32:54.093Z,4.70
2022-08-16T10:35:21.111Z,4.35
2022-08-16T10:37:52.465Z,4.03
2022-08-16T10:40:29.154Z,4.28
2022-08-16T10:43:00.138Z,4.55
2022-08-16T10:45:29.179Z,5.25
2022-08-16T10:48:28.017Z,5.65
2022-08-16T10:50:55.215Z,4.65
2022-08-16T10:53:22.226Z,4.43
2022-08-16T10:55:57.325Z,4.78
2022-08-16T10:58:34.684Z,4.13
2022-08-16T11:03:57.366Z,4.60
2022-08-16T11:06:26.847Z,4.65
2022-08-16T11:14:29.319Z,5.20
2022-08-16T11:17:10.573Z,5.00
2022-08-16T11:22:47.104Z,4.57
2022-08-16T11:26:07.395Z,5.05
2022-08-16T11:28:05.189Z,4.60
2022-08-16T11:30:39.109Z,4.93
2022-08-16T11:33:07.862Z,4.90
2022-08-16T11:38:46.233Z,4.35
2022-08-16T11:41:11.328Z,4.63
2022-08-16T11:43:39.176Z,4.43
2022-08-16T11:46:44.259Z,4.45
2022-08-16T11:48:56.302Z,4.45
2022-08-16T11:51:23.260Z,5.15
2022-08-16T11:53:50.204Z,4.70
2022-08-16T11:56:28.634Z,4.50
2022-08-16T11:59:06.485Z,5.47
2022-08-16T12:01:54.815Z,5.28
2022-08-16T12:04:22.361Z,5.00
2022-08-16T12:06:49.983Z,4.60
2022-08-16T12:09:21.084Z,4.18
2022-08-16T12:11:52.747Z,5.10
2022-08-16T12:14:22.829Z,5.20
2022-08-16T12:16:55.627Z,4.72
2022-08-16T12:19:35.483Z,4.90
2022-08-16T12:22:19.300Z,4.60
2022-08-16T12:24:51.933Z,4.07
2022-08-16T12:27:24.178Z,4.80
2022-08-16T12:29:52.637Z,4.28
2022-08-16T12:32:36.171Z,4.30
2022-08-16T12:35:07.564Z,3.80
2022-08-16T12:37:34.863Z,4.57
2022-08-16T12:40:01.952Z,4.20
2022-08-16T12:42:35.588Z,4.63
2022-08-16T12:45:06.582Z,3.92
2022-08-16T12:48:04.919Z,4.13
2022-08-16T12:50:39.357Z,3.67
2022-08-16T12:53:07.273Z,4.65
2022-08-16T12:55:42.105Z,4.40
2022-08-16T12:58:13.805Z,4.55
2022-08-16T13:00:41.525Z,4.00
2022-08-16T13:03:12.557Z,4.38
2022-08-16T13:05:47.762Z,4.18
2022-08-16T13:08:22.738Z,4.05
2022-08-16T13:10:55.232Z,4.50
2022-08-16T13:13:26.630Z,4.40
2022-08-16T13:16:03.621Z,4.00
2022-08-16T13:18:34.225Z,4.80
2022-08-16T13:21:06.947Z,4.53
2022-08-16T13:23:35.793Z,4.82
2022-08-16T13:26:03.648Z,5.03
2022-08-16T13:28:30.541Z,4.22
2022-08-16T13:30:57.587Z,4.15
2022-08-16T13:33:30.241Z,4.72
2022-08-16T13:36:00.827Z,4.97
2022-08-16T13:38:31.564Z,4.80
2022-08-16T13:41:05.835Z,4.60
2022-08-16T13:43:36.073Z,4.32
2022-08-16T13:46:04.738Z,4.72
2022-08-16T13:48:43.230Z,4.85
2022-08-16T13:51:18.261Z,4.43
2022-08-16T13:53:49.517Z,4.85
2022-08-16T13:56:25.374Z,4.70
2022-08-16T13:58:54.149Z,4.60
2022-08-16T14:01:21.695Z,4.60
2022-08-16T14:03:50.449Z,4.72
2022-08-16T14:06:21.586Z,4.50
2022-08-16T14:08:50.318Z,3.97
2022-08-16T14:11:34.564Z,4.50
2022-08-16T14:14:01.829Z,4.43
2022-08-16T14:16:34.867Z,4.30
2022-08-16T14:19:02.991Z,4.45
2022-08-16T14:21:35.038Z,4.90
2022-08-16T14:24:12.862Z,4.50
2022-08-16T14:26:50.053Z,4.90
2022-08-16T14:31:49.607Z,5.78
2022-08-16T14:34:21.767Z,4.85
2022-08-16T14:36:53.187Z,4.53
2022-08-16T14:39:22.225Z,5.28
2022-08-16T14:41:49.424Z,5.32
2022-08-16T14:44:20.314Z,5.10
2022-08-16T14:46:47.212Z,5.18
2022-08-16T14:49:14.557Z,5.50
2022-08-16T14:51:46.163Z,4.85
2022-08-16T14:54:15.128Z,5.40
2022-08-16T14:56:46.909Z,5.05
2022-08-16T14:59:22.473Z,4.72
2022-08-16T15:01:59.548Z,4.88
2022-08-16T15:04:32.395Z,4.45
2022-08-16T15:07:10.185Z,4.47
2022-08-16T15:09:44.855Z,4.45
2022-08-16T15:12:26.928Z,4.60
2022-08-16T15:14:58.443Z,4.00
2022-08-16T15:17:27.705Z,4.80
2022-08-16T15:20:01.266Z,4.65
2022-08-16T15:22:30.895Z,5.47
2022-08-16T15:24:59.183Z,4.57
2022-08-16T15:27:33.659Z,4.90
2022-08-16T15:30:47.909Z,4.13
2022-08-16T15:32:56.118Z,3.83
2022-08-16T15:35:23.354Z,3.72
2022-08-16T15:37:54.774Z,3.85
2022-08-16T15:40:32.572Z,3.80
2022-08-16T15:43:03.961Z,3.22
2022-08-16T15:45:55.557Z,2.95
2022-08-16T15:48:28.591Z,3.08
2022-08-16T15:50:57.685Z,2.92
2022-08-16T15:53:27.393Z,2.90
2022-08-16T15:55:58.744Z,2.97
2022-08-16T15:58:35.076Z,3.58
2022-08-16T16:01:06.033Z,3.35
2022-08-16T16:03:34.544Z,3.42
2022-08-16T16:06:02.777Z,3.83
2022-08-16T16:08:30.337Z,2.97
2022-08-16T16:10:59.800Z,2.72
2022-08-16T16:13:26.807Z,3.67
2022-08-16T16:15:56.639Z,3.00
2022-08-16T16:18:26.091Z,3.58
2022-08-16T16:20:59.181Z,3.05
2022-08-16T16:23:35.857Z,3.03
2022-08-16T16:26:12.404Z,3.13
2022-08-16T16:29:05.372Z,3.78
2022-08-16T16:31:27.378Z,3.20
2022-08-16T16:33:56.032Z,3.30
2022-08-16T16:36:28.618Z,3.72
2022-08-16T16:38:56.904Z,3.35
2022-08-16T16:41:25.494Z,3.40
2022-08-16T16:43:53.775Z,3.17
2022-08-16T16:46:39.005Z,3.75
2022-08-16T16:49:10.204Z,2.95
2022-08-16T16:51:40.863Z,3.50
2022-08-16T16:54:12.887Z,3.22
2022-08-16T16:56:49.846Z,3.08
2022-08-16T16:59:19.962Z,3.70
2022-08-16T17:02:00.295Z,3.60
2022-08-16T17:04:36.731Z,3.42
2022-08-16T17:07:04.145Z,3.47
2022-08-16T17:09:39.456Z,3.58
2022-08-16T17:12:09.432Z,3.85
2022-08-16T17:14:38.354Z,3.30
2022-08-16T17:17:09.259Z,3.28
2022-08-16T17:19:41.188Z,3.53
2022-08-16T17:22:15.108Z,3.95
2022-08-16T17:24:45.106Z,3.60
2022-08-16T17:27:18.014Z,3.72
2022-08-16T17:29:51.277Z,3.92
2022-08-16T17:32:34.437Z,3.40
2022-08-16T17:35:17.866Z,3.53
2022-08-16T17:37:51.810Z,4.25
2022-08-16T17:40:47.825Z,3.70
2022-08-16T17:43:14.625Z,3.40
2022-08-16T17:45:42.340Z,3.90
2022-08-16T17:48:09.329Z,3.42
2022-08-16T17:50:36.543Z,3.33
2022-08-16T17:53:04.965Z,3.33
2022-08-16T17:55:34.124Z,2.92
2022-08-16T17:58:01.430Z,3.78
2022-08-16T18:00:47.633Z,3.55
2022-08-16T18:03:17.324Z,4.05
2022-08-16T18:06:10.974Z,2.80
2022-08-16T18:08:38.208Z,3.70
2022-08-16T18:11:07.976Z,3.70
2022-08-16T18:13:34.986Z,3.40
2022-08-16T18:16:01.857Z,3.53
2022-08-16T18:18:29.061Z,3.90
2022-08-16T18:21:14.586Z,3.70
2022-08-16T18:23:41.843Z,4.03
2022-08-16T18:26:08.794Z,3.70
2022-08-16T18:28:37.842Z,4.55
2022-08-16T18:31:08.220Z,3.70
2022-08-16T18:33:41.313Z,3.60
2022-08-16T18:36:20.777Z,3.85
2022-08-16T18:38:49.525Z,4.25
2022-08-16T18:41:17.330Z,3.88
2022-08-16T18:44:23.867Z,4.50
2022-08-16T18:46:31.327Z,3.90
2022-08-16T18:48:58.371Z,4.13
2022-08-16T18:51:25.959Z,3.85
2022-08-16T18:53:53.524Z,3.53
2022-08-16T18:56:20.610Z,3.60
2022-08-16T18:58:47.473Z,4.10
2022-08-16T19:01:14.699Z,3.88
2022-08-16T19:03:41.725Z,3.78
2022-08-16T19:06:13.610Z,3.72
2022-08-16T19:08:43.797Z,4.53
2022-08-16T19:11:14.319Z,4.10
2022-08-16T19:13:44.236Z,4.30
2022-08-16T19:16:12.093Z,4.43
2022-08-16T19:18:39.026Z,4.78
2022-08-16T19:21:06.453Z,4.93
2022-08-16T19:23:35.900Z,4.82
2022-08-16T19:26:06.553Z,5.10
2022-08-16T19:28:49.653Z,4.70
2022-08-16T19:31:31.208Z,5.00
2022-08-16T19:33:58.495Z,4.80
2022-08-16T19:36:37.364Z,4.82
2022-08-16T19:39:13.695Z,4.75
2022-08-16T19:41:42.872Z,5.22
2022-08-16T19:44:09.805Z,4.75
2022-08-16T19:46:37.966Z,4.55
2022-08-16T19:49:05.645Z,4.53
2022-08-16T19:51:32.568Z,5.15
2022-08-16T19:53:59.544Z,4.95
2022-08-16T19:56:27.031Z,4.88
2022-08-16T20:01:43.063Z,5.18
2022-08-16T20:04:12.779Z,5.15
2022-08-16T20:06:41.077Z,5.15
2022-08-16T20:09:08.299Z,4.65
2022-08-16T20:11:37.397Z,5.30
2022-08-16T20:14:04.377Z,5.50
2022-08-16T20:16:31.463Z,4.68
2022-08-16T20:18:58.314Z,5.40
2022-08-16T20:21:25.183Z,5.50
2022-08-16T20:23:54.088Z,5.43
2022-08-16T20:26:28.558Z,5.05
2022-08-16T20:28:56.066Z,4.57
2022-08-16T20:31:23.712Z,5.15
2022-08-16T20:33:51.303Z,5.07
2022-08-16T20:36:18.474Z,4.45
2022-08-16T20:38:47.643Z,5.18
2022-08-16T20:41:16.202Z,5.20
2022-08-16T20:43:43.776Z,5.03
2022-08-16T20:46:12.598Z,5.32
2022-08-16T20:48:39.845Z,5.40
2022-08-16T20:51:10.561Z,5.57
2022-08-16T20:53:38.903Z,5.63
2022-08-16T20:56:06.171Z,5.10
2022-08-16T20:58:33.302Z,5.20
2022-08-16T21:01:00.289Z,5.13
2022-08-16T21:03:27.357Z,5.32
2022-08-16T21:05:57.594Z,5.35
2022-08-16T21:08:51.117Z,5.10
2022-08-16T21:11:11.944Z,4.47
2022-08-16T21:13:42.963Z,5.15
2022-08-16T21:16:09.995Z,5.65
2022-08-16T21:18:37.090Z,5.35
2022-08-16T21:21:03.993Z,4.85
2022-08-16T21:23:30.955Z,5.15
2022-08-16T21:25:59.815Z,5.50
2022-08-16T21:28:39.909Z,4.88
2022-08-16T21:31:14.258Z,5.38
2022-08-16T21:33:41.263Z,5.13
2022-08-16T21:36:08.314Z,5.43
2022-08-16T21:38:35.598Z,5.40
2022-08-16T21:41:03.071Z,5.93
2022-08-16T21:43:32.816Z,5.43
2022-08-16T21:46:01.403Z,5.15
2022-08-16T21:48:34.779Z,5.00
2022-08-16T21:51:04.906Z,5.85
2022-08-16T21:53:31.850Z,5.15
2022-08-16T21:55:58.817Z,5.60
2022-08-16T21:58:26.008Z,5.90
2022-08-16T22:00:53.207Z,5.30
2022-08-16T22:03:21.138Z,6.25
2022-08-16T22:06:11.569Z,6.18
2022-08-16T22:08:45.700Z,5.50
2022-08-16T22:11:21.290Z,5.78
2022-08-16T22:13:57.592Z,5.82
2022-08-16T22:16:29.894Z,6.63
2022-08-16T22:18:56.814Z,5.95
2022-08-16T22:21:23.869Z,5.38
2022-08-16T22:23:56.588Z,6.53
2022-08-16T22:26:33.225Z,5.72
2022-08-16T22:29:07.780Z,5.82
2022-08-16T22:31:35.290Z,5.68
2022-08-16T22:34:02.561Z,6.72
2022-08-16T22:36:30.814Z,6.05
2022-08-16T22:38:58.741Z,5.75
2022-08-16T22:41:27.678Z,6.55
2022-08-16T22:43:54.710Z,5.50
2022-08-16T22:46:21.570Z,5.93
2022-08-16T22:48:51.506Z,5.93
2022-08-16T22:51:19.399Z,6.38
2022-08-16T22:53:46.341Z,5.50
2022-08-16T22:56:13.526Z,5.93
2022-08-16T22:58:40.376Z,6.22
2022-08-16T23:01:07.918Z,5.70
2022-08-16T23:03:35.511Z,6.00
2022-08-16T23:06:02.408Z,5.90
2022-08-16T23:08:38.064Z,5.85
2022-08-16T23:11:09.188Z,6.20
2022-08-16T23:13:52.661Z,5.53
2022-08-16T23:16:32.712Z,5.97
2022-08-16T23:19:06.153Z,5.70
2022-08-16T23:21:33.940Z,5.43
2022-08-16T23:24:01.215Z,5.28
2022-08-16T23:26:44.026Z,5.57
2022-08-16T23:29:26.619Z,6.18
2022-08-16T23:31:59.482Z,5.70
2022-08-16T23:34:27.520Z,5.32
2022-08-16T23:36:54.433Z,5.85
2022-08-16T23:39:22.132Z,5.57
2022-08-16T23:41:49.282Z,5.03
2022-08-16T23:44:55.115Z,5.45
2022-08-16T23:47:06.152Z,5.90
2022-08-16T23:49:56.239Z,5.63
2022-08-16T23:52:53.765Z,4.70
2022-08-16T23:55:07.966Z,5.55
2022-08-16T23:57:35.100Z,5.25
